Time;durP1;ratioP1;P1;durP2;ratioP2;P2;SDS_P1;SDS_P2;PMS_P1;PMS_P2;Temp;Humidity;BMP_temperature;BMP_pressure;BME280_temperature;BME280_humidity;BME280_pressure;Samples;Min_cycle;Max_cycle;Signal;HPM_P1;HPM_P2
2021/06/22 00:01:41;;;;;;;3.08;2.20;;;22.60;60.00;;;;;;10423747;28;20056;-52
2021/06/22 00:06:41;;;;;;;4.30;2.20;;;22.60;60.10;;;;;;10416596;28;20120;-53
2021/06/22 00:11:42;;;;;;;4.38;2.22;;;22.60;60.10;;;;;;10416084;28;20052;-49
2021/06/22 00:16:43;;;;;;;2.80;2.00;;;22.60;60.00;;;;;;10414911;28;20099;-54
2021/06/22 00:21:43;;;;;;;2.80;2.20;;;22.60;59.90;;;;;;10428566;28;20116;-53
2021/06/22 00:26:44;;;;;;;2.75;2.22;;;22.60;59.90;;;;;;10415528;28;20044;-51
2021/06/22 00:31:45;;;;;;;3.55;2.65;;;22.60;59.80;;;;;;10415255;28;20122;-52
2021/06/22 00:36:46;;;;;;;3.95;2.67;;;22.60;59.80;;;;;;10414721;28;20494;-53
2021/06/22 00:41:46;;;;;;;3.95;2.30;;;22.60;59.80;;;;;;10415079;28;20430;-51
2021/06/22 00:46:47;;;;;;;3.45;2.33;;;22.50;59.70;;;;;;10414878;28;20033;-52
2021/06/22 00:51:48;;;;;;;3.03;2.05;;;22.50;59.70;;;;;;10414532;28;20132;-54
2021/06/22 00:56:48;;;;;;;4.65;2.40;;;22.50;59.70;;;;;;10415697;28;20037;-52
2021/06/22 01:01:51;;;;;;;3.20;2.40;;;22.50;59.70;;;;;;10419686;28;20516;-52
2021/06/22 01:06:54;;;;;;;2.78;1.83;;;22.50;59.60;;;;;;10413027;28;20044;-51
2021/06/22 01:11:57;;;;;;;4.18;2.67;;;22.50;59.70;;;;;;10413008;28;20037;-53
2021/06/22 01:16:58;;;;;;;4.03;2.63;;;22.50;59.60;;;;;;10413918;28;20658;-50
2021/06/22 01:21:59;;;;;;;3.67;2.47;;;22.50;59.60;;;;;;10414280;28;20071;-53
2021/06/22 01:27:01;;;;;;;3.65;2.38;;;22.50;59.50;;;;;;10413755;28;20107;-53
2021/06/22 01:32:02;;;;;;;4.32;2.30;;;22.50;59.50;;;;;;10413562;28;20052;-49
2021/06/22 01:37:08;;;;;;;4.72;2.67;;;22.40;59.40;;;;;;10414150;28;20581;-53
2021/06/22 01:42:09;;;;;;;3.05;2.33;;;22.40;59.30;;;;;;10413418;28;20029;-52
2021/06/22 01:47:10;;;;;;;5.57;2.30;;;22.40;60.00;;;;;;10417253;28;20047;-51
2021/06/22 01:52:16;;;;;;;4.57;2.70;;;22.40;59.30;;;;;;10421453;28;20426;-53
2021/06/22 01:57:16;;;;;;;3.40;2.17;;;22.40;59.30;;;;;;10427591;28;20021;-51
2021/06/22 02:02:18;;;;;;;4.65;2.88;;;22.40;59.30;;;;;;10423143;28;20060;-53
2021/06/22 02:07:18;;;;;;;4.03;2.30;;;22.40;59.30;;;;;;10420960;28;20096;-52
2021/06/22 02:12:19;;;;;;;4.97;2.97;;;22.40;59.30;;;;;;10420684;28;20049;-48
2021/06/22 02:17:20;;;;;;;4.28;2.72;;;22.40;59.30;;;;;;10420562;28;20061;-50
2021/06/22 02:22:20;;;;;;;3.15;2.22;;;22.40;59.20;;;;;;10435665;28;20079;-51
2021/06/22 02:27:30;;;;;;;4.72;2.30;;;22.40;59.20;;;;;;10420575;28;20025;-51
2021/06/22 02:32:31;;;;;;;3.42;2.55;;;22.40;59.20;;;;;;10420125;28;20040;-51
2021/06/22 02:37:32;;;;;;;3.97;2.58;;;22.30;59.20;;;;;;10419678;28;20030;-52
2021/06/22 02:42:33;;;;;;;4.07;2.63;;;22.30;59.10;;;;;;10419814;28;20033;-51
2021/06/22 02:47:34;;;;;;;3.85;2.50;;;22.30;59.10;;;;;;10419283;28;20116;-50
2021/06/22 02:52:35;;;;;;;3.58;2.42;;;22.30;59.20;;;;;;10419217;28;20045;-52
2021/06/22 02:57:36;;;;;;;6.03;3.35;;;22.30;59.10;;;;;;10442193;28;20029;-52
2021/06/22 03:02:36;;;;;;;3.40;2.55;;;22.30;59.00;;;;;;10418459;28;20053;-52
2021/06/22 03:07:37;;;;;;;3.15;2.35;;;22.30;59.10;;;;;;10418432;28;20076;-50
2021/06/22 03:12:39;;;;;;;3.53;2.47;;;22.30;59.00;;;;;;10418098;28;20040;-49
2021/06/22 03:17:39;;;;;;;2.53;1.90;;;22.30;59.00;;;;;;10416106;28;20037;-54
2021/06/22 03:22:41;;;;;;;5.22;2.58;;;22.30;58.90;;;;;;10415938;28;20056;-51
2021/06/22 03:27:42;;;;;;;4.63;2.50;;;22.20;59.50;;;;;;10418261;28;20492;-49
2021/06/22 03:32:45;;;;;;;3.60;2.30;;;22.20;58.80;;;;;;10418500;28;20034;-51
2021/06/22 03:37:46;;;;;;;4.65;2.47;;;22.20;58.80;;;;;;10417904;28;20383;-52
2021/06/22 03:42:47;;;;;;;2.65;2.15;;;22.20;58.80;;;;;;10433058;28;20125;-51
2021/06/22 03:47:48;;;;;;;2.92;2.28;;;22.20;58.80;;;;;;10417413;28;20521;-50
2021/06/22 03:52:48;;;;;;;2.83;2.00;;;22.20;58.80;;;;;;10416161;28;20128;-51
2021/06/22 03:57:59;;;;;;;3.50;2.60;;;22.20;58.80;;;;;;10425273;28;20033;-51
2021/06/22 04:03:00;;;;;;;3.88;2.35;;;22.20;58.80;;;;;;10417259;28;20346;-51
2021/06/22 04:08:01;;;;;;;3.95;2.63;;;22.20;58.80;;;;;;10416129;28;20481;-51
2021/06/22 04:13:02;;;;;;;3.83;2.47;;;22.10;58.80;;;;;;10416636;28;20045;-53
2021/06/22 04:18:09;;;;;;;2.70;2.10;;;22.10;58.70;;;;;;10416398;28;20025;-50
2021/06/22 04:23:09;;;;;;;3.60;2.63;;;22.10;59.40;;;;;;10416305;28;20025;-51
2021/06/22 04:28:11;;;;;;;2.67;2.38;;;22.10;58.70;;;;;;10414873;28;20450;-50
2021/06/22 04:33:12;;;;;;;2.95;2.38;;;22.10;58.70;;;;;;10415787;28;20059;-52
2021/06/22 04:38:13;;;;;;;3.83;2.50;;;22.10;58.70;;;;;;10415596;28;20029;-49
2021/06/22 04:43:15;;;;;;;4.13;2.50;;;22.10;58.70;;;;;;10415299;28;20072;-52
2021/06/22 04:48:16;;;;;;;3.83;2.65;;;22.10;58.80;;;;;;10415246;28;20053;-52
2021/06/22 04:53:18;;;;;;;3.45;2.17;;;22.10;58.80;;;;;;10401741;28;20382;-49
2021/06/22 04:58:19;;;;;;;3.13;2.45;;;22.10;58.90;;;;;;10423551;28;20478;-53
2021/06/22 05:03:20;;;;;;;3.78;2.80;;;22.10;58.90;;;;;;10413140;28;20037;-48
2021/06/22 05:08:21;;;;;;;3.17;2.30;;;22.10;59.00;;;;;;10427711;28;20021;-47
2021/06/22 05:13:21;;;;;;;2.85;2.45;;;22.10;59.10;;;;;;10414679;28;20053;-49
2021/06/22 05:18:22;;;;;;;3.72;2.28;;;22.10;59.10;;;;;;10413132;28;20045;-53
2021/06/22 05:23:23;;;;;;;2.63;2.03;;;22.10;59.20;;;;;;10414310;28;20036;-49
2021/06/22 05:28:24;;;;;;;2.53;2.08;;;22.00;59.20;;;;;;10414136;28;20037;-50
2021/06/22 05:33:24;;;;;;;2.65;2.28;;;22.00;59.30;;;;;;10413920;28;20106;-51
2021/06/22 05:38:25;;;;;;;3.17;2.40;;;22.00;59.40;;;;;;10413892;28;20107;-51
2021/06/22 05:43:26;;;;;;;3.75;2.40;;;22.00;59.40;;;;;;10413986;28;20045;-50
2021/06/22 05:48:26;;;;;;;3.65;2.45;;;22.00;59.40;;;;;;10413850;28;20045;-53
2021/06/22 05:53:27;;;;;;;3.17;2.33;;;22.00;59.40;;;;;;10399529;28;20032;-52
2021/06/22 05:58:28;;;;;;;3.53;2.20;;;22.00;59.40;;;;;;10422271;28;20073;-49
2021/06/22 06:03:28;;;;;;;4.50;2.45;;;22.00;59.50;;;;;;10413489;28;20055;-51
2021/06/22 06:08:32;;;;;;;3.72;2.53;;;22.00;59.50;;;;;;10414074;28;20476;-49
2021/06/22 06:13:35;;;;;;;3.75;2.45;;;22.00;59.50;;;;;;10413487;28;20037;-50
2021/06/22 06:18:36;;;;;;;3.22;2.58;;;22.00;59.60;;;;;;10413098;28;20029;-53
2021/06/22 06:23:41;;;;;;;4.45;3.05;;;22.00;59.70;;;;;;10413203;28;20445;-51
2021/06/22 06:28:49;;;;;;;3.30;2.45;;;22.00;59.80;;;;;;10414126;28;20432;-53
2021/06/22 06:33:50;;;;;;;3.17;2.55;;;22.00;59.80;;;;;;10417743;28;20042;-52
2021/06/22 06:38:50;;;;;;;3.92;2.55;;;22.00;59.80;;;;;;10420159;28;20033;-51
2021/06/22 06:43:51;;;;;;;4.72;3.10;;;22.00;59.80;;;;;;10420359;28;20493;-50
2021/06/22 06:48:52;;;;;;;3.78;2.50;;;22.00;59.80;;;;;;10419739;28;20055;-50
2021/06/22 06:53:53;;;;;;;4.38;3.03;;;22.00;59.80;;;;;;10419379;28;20112;-53
2021/06/22 06:58:53;;;;;;;4.13;3.15;;;22.00;59.90;;;;;;10427640;28;20129;-53
2021/06/22 07:03:55;;;;;;;5.78;3.22;;;22.00;60.00;;;;;;10418013;28;20030;-51
2021/06/22 07:08:56;;;;;;;4.30;3.17;;;22.00;60.00;;;;;;10419231;28;20522;-54
2021/06/22 07:13:57;;;;;;;4.88;3.13;;;22.00;60.00;;;;;;10417904;28;20104;-51
2021/06/22 07:18:57;;;;;;;5.30;3.55;;;22.00;60.00;;;;;;10418699;28;20064;-53
2021/06/22 07:23:58;;;;;;;5.28;3.78;;;22.00;59.90;;;;;;10418635;28;20109;-52
2021/06/22 07:28:59;;;;;;;4.22;3.80;;;22.00;59.90;;;;;;10418315;28;20029;-53
2021/06/22 07:34:00;;;;;;;6.50;4.57;;;22.00;59.90;;;;;;10418417;28;20057;-51
2021/06/22 07:39:01;;;;;;;4.78;3.92;;;22.00;59.80;;;;;;10418070;28;20025;-51
2021/06/22 07:44:02;;;;;;;5.70;4.28;;;22.00;59.80;;;;;;10416449;28;20474;-54
2021/06/22 07:49:02;;;;;;;6.50;4.57;;;22.00;59.90;;;;;;10416833;28;20054;-52
2021/06/22 07:54:04;;;;;;;5.68;4.10;;;22.00;59.80;;;;;;10417541;28;20035;-54
2021/06/22 07:59:04;;;;;;;6.78;5.03;;;22.00;59.60;;;;;;10426174;28;20106;-52
2021/06/22 08:04:05;;;;;;;4.97;4.32;;;22.00;59.50;;;;;;10417628;28;20080;-52
2021/06/22 08:09:06;;;;;;;5.53;4.47;;;22.00;59.60;;;;;;10416935;28;20108;-52
2021/06/22 08:14:06;;;;;;;7.40;5.15;;;22.10;59.30;;;;;;10416745;28;20112;-49
2021/06/22 08:19:08;;;;;;;6.47;5.28;;;22.00;59.40;;;;;;10416257;28;20037;-54
2021/06/22 08:24:08;;;;;;;6.10;4.90;;;22.10;59.60;;;;;;10416089;28;20074;-51
2021/06/22 08:29:09;;;;;;;7.75;6.25;;;22.10;59.60;;;;;;10416204;28;20470;-52
2021/06/22 08:34:10;;;;;;;6.68;4.93;;;22.10;59.70;;;;;;10415834;28;20104;-53
2021/06/22 08:39:10;;;;;;;7.10;5.20;;;22.00;59.70;;;;;;10415704;28;20072;-53
2021/06/22 08:44:11;;;;;;;7.05;6.35;;;22.10;59.80;;;;;;10415680;28;20064;-53
2021/06/22 08:49:15;;;;;;;7.72;6.55;;;22.10;59.60;;;;;;10413973;28;20046;-54
2021/06/22 08:54:16;;;;;;;8.80;6.43;;;22.00;59.40;;;;;;10413734;28;20033;-53
2021/06/22 08:59:17;;;;;;;6.90;5.82;;;22.10;59.50;;;;;;10422939;28;20075;-54
2021/06/22 09:04:17;;;;;;;7.80;6.15;;;22.10;59.40;;;;;;10414799;28;20098;-54
2021/06/22 09:09:18;;;;;;;7.40;6.32;;;22.10;59.50;;;;;;10413417;28;20080;-49
2021/06/22 09:14:31;;;;;;;7.35;6.53;;;22.10;59.40;;;;;;10414419;28;20083;-52
2021/06/22 09:19:34;;;;;;;7.65;5.78;;;22.10;59.50;;;;;;10413562;28;20112;-54
2021/06/22 09:24:35;;;;;;;7.28;6.15;;;22.10;59.50;;;;;;10414188;28;20029;-50
2021/06/22 09:29:44;;;;;;;8.05;6.55;;;22.10;59.60;;;;;;10414306;28;20072;-50
2021/06/22 09:34:45;;;;;;;7.43;6.60;;;22.10;59.60;;;;;;10414050;28;20039;-51
2021/06/22 09:39:47;;;;;;;7.57;6.80;;;22.10;59.50;;;;;;10413915;28;20095;-52
2021/06/22 09:44:47;;;;;;;8.27;7.03;;;22.10;59.50;;;;;;10414569;28;20474;-51
2021/06/22 09:49:48;;;;;;;8.18;6.75;;;22.10;59.40;;;;;;10412360;28;20120;-50
2021/06/22 09:54:51;;;;;;;7.93;7.10;;;22.10;59.40;;;;;;10413656;28;20471;-50
2021/06/22 10:00:05;;;;;;;7.93;7.13;;;22.10;59.40;;;;;;10421518;28;20029;-51
2021/06/22 10:05:08;;;;;;;7.85;7.03;;;22.10;59.10;;;;;;10413714;28;20040;-50
2021/06/22 10:10:10;;;;;;;7.47;6.50;;;22.10;59.10;;;;;;10419282;28;20065;-50
2021/06/22 10:15:14;;;;;;;8.73;6.55;;;22.10;59.10;;;;;;10420115;28;20035;-53
2021/06/22 10:20:15;;;;;;;8.27;7.22;;;22.10;59.20;;;;;;10421093;28;20048;-49
2021/06/22 10:25:17;;;;;;;9.07;7.45;;;22.10;59.30;;;;;;10421051;28;20035;-54
2021/06/22 10:30:20;;;;;;;8.30;7.47;;;22.20;59.10;;;;;;10419846;28;20363;-52
2021/06/22 10:35:21;;;;;;;9.85;7.57;;;22.20;59.40;;;;;;10420874;28;20450;-53
2021/06/22 10:40:34;;;;;;;9.13;7.05;;;22.20;59.30;;;;;;10420107;28;20048;-53
2021/06/22 10:46:02;;;;;;;9.02;8.07;;;22.20;59.30;;;;;;10419235;28;20043;-53
2021/06/22 10:51:42;;;;;;;7.60;6.82;;;22.20;59.20;;;;;;10419660;28;20037;-52
2021/06/22 10:56:43;;;;;;;8.77;7.80;;;22.20;59.20;;;;;;10421433;28;20430;-54
2021/06/22 11:01:50;;;;;;;7.88;6.75;;;22.30;59.80;;;;;;10426387;28;20137;-53
2021/06/22 11:07:06;;;;;;;9.07;7.20;;;22.30;59.10;;;;;;10419554;28;20367;-54
2021/06/22 11:12:18;;;;;;;7.68;6.88;;;22.30;59.00;;;;;;10419122;28;20108;-53
2021/06/22 11:17:42;;;;;;;9.25;7.18;;;22.30;58.70;;;;;;10418669;28;20087;-54
2021/06/22 11:23:06;;;;;;;7.80;7.00;;;22.30;58.70;;;;;;10418541;28;20029;-52
2021/06/22 11:28:06;;;;;;;9.00;8.10;;;22.40;58.60;;;;;;10418494;28;20496;-54
2021/06/22 11:33:29;;;;;;;10.93;7.55;;;22.40;58.60;;;;;;10418255;28;20101;-51
2021/06/22 11:38:30;;;;;;;7.78;6.97;;;22.40;58.40;;;;;;10417131;28;20504;-52
2021/06/22 11:43:31;;;;;;;8.57;7.78;;;22.40;58.40;;;;;;10416655;28;20033;-51
2021/06/22 11:48:58;;;;;;;8.77;7.28;;;22.40;58.40;;;;;;10416588;28;20391;-54
2021/06/22 11:53:58;;;;;;;7.68;6.93;;;22.40;58.40;;;;;;10417510;28;20076;-52
2021/06/22 11:59:01;;;;;;;8.23;7.43;;;22.40;58.40;;;;;;10425551;28;20072;-50
2021/06/22 12:04:03;;;;;;;7.97;7.18;;;22.50;58.60;;;;;;10417097;28;20030;-53
2021/06/22 12:09:21;;;;;;;8.60;7.75;;;22.50;58.40;;;;;;10417222;28;20100;-53
2021/06/22 12:14:22;;;;;;;7.70;6.88;;;22.50;58.40;;;;;;10416885;28;20033;-53
2021/06/22 12:19:23;;;;;;;8.45;7.60;;;22.50;58.50;;;;;;10416383;28;20037;-54
2021/06/22 12:24:24;;;;;;;8.68;7.78;;;22.50;58.40;;;;;;10417109;28;20017;-54
2021/06/22 12:29:30;;;;;;;8.43;7.63;;;22.50;58.40;;;;;;10415319;28;20037;-53
2021/06/22 12:34:36;;;;;;;10.65;7.93;;;22.50;58.50;;;;;;10431626;28;20113;-53
2021/06/22 12:39:40;;;;;;;8.13;7.32;;;22.50;58.40;;;;;;10415588;28;20025;-52
2021/06/22 12:44:40;;;;;;;8.00;6.93;;;22.60;58.50;;;;;;10415540;28;20026;-52
2021/06/22 12:49:42;;;;;;;8.05;7.25;;;22.50;58.50;;;;;;10430437;28;20045;-51
2021/06/22 12:54:44;;;;;;;8.25;7.43;;;22.60;58.50;;;;;;10415252;28;20036;-52
2021/06/22 12:59:48;;;;;;;8.15;7.35;;;22.60;58.50;;;;;;10423702;28;20028;-53
2021/06/22 13:04:54;;;;;;;8.13;7.32;;;22.60;58.50;;;;;;10414816;28;20052;-53
2021/06/22 13:09:55;;;;;;;7.30;6.68;;;22.60;58.50;;;;;;10415200;28;20022;-52
2021/06/22 13:15:02;;;;;;;8.50;7.65;;;22.60;58.50;;;;;;10414563;28;20026;-53
2021/06/22 13:20:08;;;;;;;8.30;7.10;;;22.60;58.60;;;;;;10413969;28;20075;-53
2021/06/22 13:25:12;;;;;;;8.10;7.40;;;22.60;58.50;;;;;;10414410;28;20033;-53
2021/06/22 13:30:19;;;;;;;8.00;7.30;;;22.50;58.50;;;;;;10413834;28;20029;-51
2021/06/22 13:35:39;;;;;;;9.80;8.32;;;22.50;59.20;;;;;;10413611;28;20044;-52
2021/06/22 13:41:01;;;;;;;8.18;7.38;;;22.50;58.60;;;;;;10414790;28;20041;-52
2021/06/22 13:46:02;;;;;;;8.45;7.47;;;22.50;58.60;;;;;;10421946;28;20037;-53
2021/06/22 13:51:09;;;;;;;10.68;7.85;;;22.50;58.60;;;;;;10407852;28;20057;-53
2021/06/22 13:56:12;;;;;;;8.27;7.57;;;22.50;58.70;;;;;;10436775;28;20030;-51
2021/06/22 14:01:16;;;;;;;7.55;6.85;;;22.50;58.70;;;;;;10429355;28;20018;-50
2021/06/22 14:06:17;;;;;;;7.22;6.53;;;22.50;58.80;;;;;;10421061;28;20033;-53
2021/06/22 14:11:17;;;;;;;7.35;6.65;;;22.50;58.60;;;;;;10419688;28;20041;-52
2021/06/22 14:16:18;;;;;;;7.28;6.40;;;22.50;58.70;;;;;;10435786;28;20033;-51
2021/06/22 14:21:20;;;;;;;8.25;6.82;;;22.50;58.70;;;;;;10420991;28;20031;-52
2021/06/22 14:26:21;;;;;;;7.15;6.45;;;22.50;58.70;;;;;;10420202;28;20032;-51
2021/06/22 14:31:23;;;;;;;8.55;7.45;;;22.50;58.70;;;;;;10419958;28;20041;-53
2021/06/22 14:36:23;;;;;;;6.70;5.78;;;22.50;58.80;;;;;;10419865;28;20466;-53
2021/06/22 14:41:24;;;;;;;8.00;6.53;;;22.50;58.80;;;;;;10434737;28;20172;-54
2021/06/22 14:46:27;;;;;;;9.55;6.07;;;22.50;58.70;;;;;;10419428;28;20061;-54
2021/06/22 14:51:28;;;;;;;7.32;6.63;;;22.50;58.70;;;;;;10417435;28;20041;-52
2021/06/22 14:56:29;;;;;;;7.00;6.30;;;22.50;58.80;;;;;;10418454;28;20030;-53
2021/06/22 15:01:30;;;;;;;6.13;5.47;;;22.50;58.70;;;;;;10427469;28;20057;-52
2021/06/22 15:06:30;;;;;;;7.57;6.35;;;22.50;58.70;;;;;;10418631;28;20124;-53
2021/06/22 15:11:32;;;;;;;6.13;5.63;;;22.50;58.70;;;;;;10418628;28;20057;-50
2021/06/22 15:16:33;;;;;;;7.85;6.13;;;22.50;58.70;;;;;;10418314;28;20065;-54
2021/06/22 15:21:34;;;;;;;6.50;5.90;;;22.50;58.70;;;;;;10418261;28;20051;-54
2021/06/22 15:26:35;;;;;;;6.72;6.03;;;22.50;58.70;;;;;;10418038;28;20091;-50
2021/06/22 15:31:36;;;;;;;6.43;5.82;;;22.50;58.80;;;;;;10416554;28;20408;-53
2021/06/22 15:36:37;;;;;;;6.53;5.85;;;22.50;58.70;;;;;;10416283;28;20076;-53
2021/06/22 15:41:38;;;;;;;6.13;5.43;;;22.50;58.70;;;;;;10417514;28;20451;-54
2021/06/22 15:46:39;;;;;;;6.45;5.85;;;22.50;58.70;;;;;;10416975;28;20037;-53
2021/06/22 15:51:40;;;;;;;6.25;5.53;;;22.50;58.60;;;;;;10403230;28;20050;-54
2021/06/22 15:56:41;;;;;;;6.95;6.25;;;22.50;58.60;;;;;;10418159;28;20381;-52
2021/06/22 16:01:44;;;;;;;6.20;5.53;;;22.50;58.60;;;;;;10423785;28;20543;-54
2021/06/22 16:06:44;;;;;;;6.65;5.90;;;22.50;58.60;;;;;;10414295;28;20044;-54
2021/06/22 16:11:45;;;;;;;7.03;5.35;;;22.50;58.60;;;;;;10414973;28;20033;-54
2021/06/22 16:16:46;;;;;;;6.63;5.93;;;22.50;58.60;;;;;;10415674;28;20034;-54
2021/06/22 16:21:47;;;;;;;6.43;5.20;;;22.40;58.70;;;;;;10415606;28;20454;-54
2021/06/22 16:26:48;;;;;;;6.20;5.60;;;22.40;58.70;;;;;;10415622;28;20029;-54
2021/06/22 16:31:49;;;;;;;5.65;5.05;;;22.40;58.80;;;;;;10415212;28;20537;-54
2021/06/22 16:36:49;;;;;;;9.38;5.68;;;22.40;58.70;;;;;;10415291;28;20083;-54
2021/06/22 16:41:50;;;;;;;6.38;5.57;;;22.40;58.60;;;;;;10413906;28;20131;-54
2021/06/22 16:46:51;;;;;;;6.00;5.03;;;22.40;58.80;;;;;;10413598;28;20022;-52
2021/06/22 16:51:52;;;;;;;6.47;5.88;;;22.40;58.90;;;;;;10414153;28;20060;-54
2021/06/22 16:56:53;;;;;;;6.90;5.75;;;22.40;58.90;;;;;;10417827;28;20032;-52
2021/06/22 17:01:53;;;;;;;5.65;5.05;;;22.40;59.00;;;;;;10420069;28;20115;-54
2021/06/22 17:06:54;;;;;;;6.15;5.20;;;22.40;58.80;;;;;;10414124;28;20072;-53
2021/06/22 17:11:55;;;;;;;7.03;6.35;;;22.40;58.90;;;;;;10414008;28;20163;-54
2021/06/22 17:16:55;;;;;;;7.95;5.38;;;22.40;58.70;;;;;;10413656;28;20104;-53
2021/06/22 17:21:56;;;;;;;7.35;5.30;;;22.40;58.70;;;;;;10414043;28;20029;-54
2021/06/22 17:26:57;;;;;;;6.30;5.70;;;22.40;58.80;;;;;;10413811;28;20030;-54
2021/06/22 17:31:58;;;;;;;6.78;6.13;;;22.40;58.80;;;;;;10413605;28;20041;-54
2021/06/22 17:36:58;;;;;;;5.47;4.78;;;22.40;58.90;;;;;;10411974;28;20343;-53
2021/06/22 17:41:59;;;;;;;6.28;5.68;;;22.40;58.80;;;;;;10412056;28;20037;-54
2021/06/22 17:47:00;;;;;;;6.00;5.40;;;22.40;58.80;;;;;;10413236;28;20168;-54
2021/06/22 17:52:00;;;;;;;5.70;5.07;;;22.40;58.80;;;;;;10428102;28;20084;-53
2021/06/22 17:57:04;;;;;;;6.38;5.78;;;22.40;58.60;;;;;;10415966;28;20040;-53
2021/06/22 18:02:04;;;;;;;5.75;5.25;;;22.40;58.70;;;;;;10415936;28;20029;-54
2021/06/22 18:07:05;;;;;;;6.18;5.57;;;22.40;58.70;;;;;;10412988;28;20394;-54
2021/06/22 18:12:07;;;;;;;6.75;5.65;;;22.40;58.70;;;;;;10412628;28;20405;-54
2021/06/22 18:17:07;;;;;;;6.45;5.80;;;22.30;58.80;;;;;;10413130;28;20065;-53
2021/06/22 18:22:08;;;;;;;6.18;5.63;;;22.40;58.80;;;;;;10413308;28;20501;-54
2021/06/22 18:27:09;;;;;;;6.28;5.15;;;22.40;58.80;;;;;;10413955;28;20065;-54
2021/06/22 18:32:09;;;;;;;5.90;5.32;;;22.30;58.70;;;;;;10419397;28;20120;-54
2021/06/22 18:37:10;;;;;;;6.05;5.45;;;22.40;58.70;;;;;;10420475;28;20037;-53
2021/06/22 18:42:12;;;;;;;6.15;5.63;;;22.40;58.80;;;;;;10420927;28;20458;-53
2021/06/22 18:47:13;;;;;;;5.38;4.88;;;22.40;58.70;;;;;;10420524;28;20029;-54
2021/06/22 18:52:14;;;;;;;5.80;5.20;;;22.40;58.70;;;;;;10419702;28;20486;-54
2021/06/22 18:57:15;;;;;;;6.38;5.28;;;22.30;58.70;;;;;;10424693;28;20033;-51
2021/06/22 19:02:16;;;;;;;6.30;5.68;;;22.30;58.70;;;;;;10420070;28;20031;-54
2021/06/22 19:07:17;;;;;;;5.88;5.38;;;22.30;58.80;;;;;;10418132;28;20450;-54
2021/06/22 19:12:17;;;;;;;5.35;4.82;;;22.30;58.80;;;;;;10419366;28;20103;-54
2021/06/22 19:17:18;;;;;;;8.07;6.00;;;22.30;58.80;;;;;;10418971;28;20428;-54
2021/06/22 19:22:20;;;;;;;6.00;5.40;;;22.30;58.80;;;;;;10418960;28;20025;-54
2021/06/22 19:27:21;;;;;;;5.47;4.97;;;22.30;58.80;;;;;;10419196;28;20100;-54
2021/06/22 19:32:22;;;;;;;6.00;5.40;;;22.30;58.80;;;;;;10418506;28;20034;-54
2021/06/22 19:37:22;;;;;;;5.60;5.10;;;22.30;59.50;;;;;;10418144;28;20087;-51
2021/06/22 19:42:23;;;;;;;5.70;5.20;;;22.30;58.90;;;;;;10417743;28;20025;-53
2021/06/22 19:47:24;;;;;;;6.25;5.65;;;22.30;58.90;;;;;;10418237;28;20048;-54
2021/06/22 19:52:24;;;;;;;6.60;5.90;;;22.30;58.90;;;;;;10404164;28;20136;-54
2021/06/22 19:57:25;;;;;;;6.38;5.40;;;22.20;58.90;;;;;;10424937;28;20116;-54
2021/06/22 20:02:26;;;;;;;6.15;5.55;;;22.30;58.90;;;;;;10418085;28;20029;-54
2021/06/22 20:07:27;;;;;;;6.22;5.63;;;22.30;58.90;;;;;;10417455;28;20132;-52
2021/06/22 20:12:28;;;;;;;6.00;5.40;;;22.20;58.80;;;;;;10417032;28;20064;-54
2021/06/22 20:17:28;;;;;;;6.78;6.10;;;22.20;58.80;;;;;;10416747;28;20107;-54
2021/06/22 20:22:29;;;;;;;6.28;5.68;;;22.30;58.90;;;;;;10416640;28;20037;-54
2021/06/22 20:27:30;;;;;;;6.25;5.55;;;22.30;58.90;;;;;;10416227;28;20091;-53
2021/06/22 20:32:30;;;;;;;6.07;5.47;;;22.20;58.90;;;;;;10416214;28;20108;-53
2021/06/22 20:37:31;;;;;;;6.40;5.13;;;22.20;58.80;;;;;;10415930;28;20458;-54
2021/06/22 20:42:32;;;;;;;5.70;5.10;;;22.20;58.90;;;;;;10416012;28;20026;-53
2021/06/22 20:47:32;;;;;;;5.75;5.13;;;22.20;59.10;;;;;;10415043;28;20090;-52
2021/06/22 20:52:33;;;;;;;7.85;5.88;;;22.20;59.00;;;;;;10414439;28;20041;-52
2021/06/22 20:57:36;;;;;;;5.47;4.97;;;22.20;58.80;;;;;;10422181;28;20152;-55
2021/06/22 21:02:37;;;;;;;6.53;5.60;;;22.20;58.80;;;;;;10413735;28;20024;-52
2021/06/22 21:07:37;;;;;;;5.85;5.25;;;22.20;58.80;;;;;;10414457;28;20029;-53
2021/06/22 21:12:38;;;;;;;6.05;5.43;;;22.20;58.90;;;;;;10414251;28;20478;-52
2021/06/22 21:17:39;;;;;;;5.40;4.90;;;22.20;59.00;;;;;;10414117;28;20033;-50
2021/06/22 21:22:40;;;;;;;5.35;4.85;;;22.20;58.90;;;;;;10414059;28;20025;-52
2021/06/22 21:27:41;;;;;;;6.05;4.95;;;22.20;58.90;;;;;;10413971;28;20021;-54
2021/06/22 21:32:42;;;;;;;5.38;4.63;;;22.20;59.00;;;;;;10414335;28;20454;-50
2021/06/22 21:37:43;;;;;;;5.45;4.95;;;22.20;59.00;;;;;;10413534;28;20038;-48
2021/06/22 21:42:43;;;;;;;5.32;4.82;;;22.10;58.90;;;;;;10413609;28;20037;-52
2021/06/22 21:47:44;;;;;;;6.53;5.55;;;22.10;58.90;;;;;;10413646;28;20025;-51
2021/06/22 21:52:45;;;;;;;5.88;5.13;;;22.10;58.80;;;;;;10413203;28;20132;-51
2021/06/22 21:57:52;;;;;;;5.60;5.00;;;22.10;58.90;;;;;;10421452;28;20082;-50
2021/06/22 22:02:53;;;;;;;5.75;5.18;;;22.10;59.00;;;;;;10415155;28;20386;-50
2021/06/22 22:07:54;;;;;;;5.85;3.75;;;22.10;59.00;;;;;;10421324;28;20033;-50
2021/06/22 22:12:54;;;;;;;5.63;4.93;;;22.10;59.00;;;;;;10421606;28;20470;-49
2021/06/22 22:17:55;;;;;;;6.43;5.32;;;22.10;58.90;;;;;;10421134;28;20116;-51
2021/06/22 22:22:56;;;;;;;7.80;4.43;;;22.10;58.90;;;;;;10420840;28;20028;-52
2021/06/22 22:27:57;;;;;;;5.50;4.60;;;22.10;58.80;;;;;;10420464;28;20040;-48
2021/06/22 22:32:57;;;;;;;5.50;5.00;;;22.10;58.80;;;;;;10420292;28;20037;-52
2021/06/22 22:37:58;;;;;;;5.68;5.07;;;22.10;58.80;;;;;;10420199;28;20025;-52
2021/06/22 22:42:59;;;;;;;5.20;4.22;;;22.10;58.80;;;;;;10419831;28;20029;-49
2021/06/22 22:48:00;;;;;;;5.20;4.70;;;22.10;58.90;;;;;;10418591;28;20109;-50
2021/06/22 22:53:00;;;;;;;4.85;4.28;;;22.10;58.90;;;;;;10419462;28;20110;-52
2021/06/22 22:58:01;;;;;;;5.93;4.85;;;22.10;58.90;;;;;;10427434;28;20442;-50
2021/06/22 23:03:03;;;;;;;4.82;4.32;;;22.00;58.80;;;;;;10419823;28;20109;-51
2021/06/22 23:08:03;;;;;;;4.50;4.05;;;22.10;58.90;;;;;;10419048;28;20030;-51
2021/06/22 23:13:04;;;;;;;8.00;4.90;;;22.00;58.80;;;;;;10418322;28;20118;-50
2021/06/22 23:18:05;;;;;;;4.50;4.10;;;22.00;58.80;;;;;;10418610;28;20528;-51
2021/06/22 23:23:06;;;;;;;5.85;5.25;;;22.00;58.80;;;;;;10418721;28;20021;-52
2021/06/22 23:28:06;;;;;;;6.20;4.65;;;22.00;58.80;;;;;;10418653;28;20466;-54
2021/06/22 23:33:07;;;;;;;4.78;4.20;;;22.00;58.90;;;;;;10433357;28;20033;-53
2021/06/22 23:38:08;;;;;;;5.00;4.50;;;22.00;58.80;;;;;;10417941;28;20504;-53
2021/06/22 23:43:09;;;;;;;5.50;4.68;;;22.00;58.80;;;;;;10417512;28;20112;-54
2021/06/22 23:48:10;;;;;;;4.93;4.43;;;22.00;58.70;;;;;;10417691;28;20156;-52
2021/06/22 23:53:10;;;;;;;5.68;4.90;;;21.90;58.70;;;;;;10409267;28;20030;-53
2021/06/22 23:58:11;;;;;;;7.10;5.20;;;22.00;58.70;;;;;;10425048;28;20042;-52
